createdAt,value
2018-12-30T00:02:44.373Z,100295.78
2018-12-30T00:05:50.529Z,100295.38
2018-12-30T00:08:56.570Z,100298.27
2018-12-30T00:12:02.191Z,100299.49
2018-12-30T00:15:07.860Z,100296.28
2018-12-30T00:18:13.500Z,100293.16
2018-12-30T00:21:19.125Z,100302.47
2018-12-30T00:24:24.726Z,100291.54
2018-12-30T00:27:30.317Z,100298.56
2018-12-30T00:30:35.933Z,100298.41
2018-12-30T00:33:41.527Z,100303.11
2018-12-30T00:36:47.151Z,100298.39
2018-12-30T00:39:53.051Z,100304.38
2018-12-30T00:42:58.711Z,100303.59
2018-12-30T00:46:04.458Z,100305.89
2018-12-30T00:49:10.052Z,100309.09
2018-12-30T00:52:15.662Z,100306.36
2018-12-30T00:55:21.299Z,100302.05
2018-12-30T00:58:26.883Z,100307.86
2018-12-30T01:01:32.525Z,100307.19
2018-12-30T01:04:38.140Z,100305.04
2018-12-30T01:07:43.801Z,100301.07
2018-12-30T01:10:49.460Z,100302.14
2018-12-30T01:13:55.089Z,100309.20
2018-12-30T01:17:00.745Z,100309.29
2018-12-30T01:20:07.382Z,100305.50
2018-12-30T01:23:13.010Z,100303.08
2018-12-30T01:26:18.671Z,100303.09
2018-12-30T01:29:24.323Z,100297.78
2018-12-30T01:32:29.963Z,100292.17
2018-12-30T01:35:35.932Z,100288.78
2018-12-30T01:38:41.556Z,100291.45
2018-12-30T01:41:47.192Z,100291.05
2018-12-30T01:44:52.827Z,100291.55
2018-12-30T01:47:58.421Z,100283.51
2018-12-30T01:51:04.042Z,100286.19
2018-12-30T01:54:09.627Z,100281.84
2018-12-30T01:57:15.259Z,100279.62
2018-12-30T02:00:20.879Z,100281.08
2018-12-30T02:03:26.532Z,100274.53
2018-12-30T02:06:32.237Z,100276.43
2018-12-30T02:09:38.028Z,100276.52
2018-12-30T02:12:43.652Z,100271.83
2018-12-30T02:15:49.248Z,100266.21
2018-12-30T02:18:54.935Z,100263.27
2018-12-30T02:22:00.933Z,100253.20
2018-12-30T02:25:06.746Z,100251.70
2018-12-30T02:28:12.355Z,100243.38
2018-12-30T02:31:18.014Z,100252.02
2018-12-30T02:34:24.042Z,100247.09
2018-12-30T02:37:29.701Z,100247.55
2018-12-30T02:40:35.344Z,100251.13
2018-12-30T02:43:40.969Z,100245.57
2018-12-30T02:46:46.638Z,100244.67
2018-12-30T02:49:52.232Z,100242.54
2018-12-30T02:52:57.863Z,100251.90
2018-12-30T02:56:03.671Z,100247.61
2018-12-30T02:59:09.281Z,100246.31
2018-12-30T03:02:14.903Z,100244.48
2018-12-30T03:05:20.497Z,100246.86
2018-12-30T03:08:26.297Z,100238.58
2018-12-30T03:11:32.282Z,100241.19
2018-12-30T03:14:37.934Z,100240.19
2018-12-30T03:17:43.556Z,100243.70
2018-12-30T03:20:49.183Z,100228.27
2018-12-30T03:23:55.188Z,100236.81
2018-12-30T03:27:00.843Z,100238.29
2018-12-30T03:30:07.296Z,100240.61
2018-12-30T03:33:12.914Z,100246.46
2018-12-30T03:36:18.582Z,100239.16
2018-12-30T03:39:24.248Z,100243.97
2018-12-30T03:42:29.866Z,100246.41
2018-12-30T03:45:35.485Z,100242.62
2018-12-30T03:48:41.143Z,100240.29
2018-12-30T03:51:46.822Z,100242.80
2018-12-30T03:54:52.454Z,100245.95
2018-12-30T03:57:58.148Z,100243.58
2018-12-30T04:01:03.771Z,100242.83
2018-12-30T04:04:09.388Z,100247.61
2018-12-30T04:07:14.986Z,100246.82
2018-12-30T04:10:20.572Z,100249.52
2018-12-30T04:13:26.162Z,100254.47
2018-12-30T04:16:31.777Z,100257.23
2018-12-30T04:19:37.400Z,100257.70
2018-12-30T04:22:43.043Z,100255.48
2018-12-30T04:25:48.732Z,100256.06
2018-12-30T04:28:54.378Z,100260.97
2018-12-30T04:32:00.008Z,100262.80
2018-12-30T04:35:06.073Z,100262.50
2018-12-30T04:38:11.694Z,100260.61
2018-12-30T04:41:17.268Z,100261.80
2018-12-30T04:44:22.883Z,100260.46
2018-12-30T04:47:28.506Z,100258.33
2018-12-30T04:50:34.153Z,100255.31
2018-12-30T04:53:39.821Z,100253.77
2018-12-30T04:56:45.472Z,100259.45
2018-12-30T04:59:51.124Z,100256.53
2018-12-30T05:02:56.764Z,100256.31
2018-12-30T05:06:02.507Z,100263.13
2018-12-30T05:09:08.900Z,100258.44
2018-12-30T05:12:14.529Z,100255.64
2018-12-30T05:15:20.102Z,100254.89
2018-12-30T05:18:25.698Z,100247.98
2018-12-30T05:21:31.303Z,100248.86
2018-12-30T05:24:36.933Z,100251.84
2018-12-30T05:27:42.523Z,100251.08
2018-12-30T05:30:48.137Z,100249.16
2018-12-30T05:33:53.736Z,100246.97
2018-12-30T05:36:59.321Z,100252.62
2018-12-30T05:40:05.058Z,100250.95
2018-12-30T05:43:10.686Z,100250.23
2018-12-30T05:46:16.339Z,100255.47
2018-12-30T05:49:22.003Z,100255.51
2018-12-30T05:52:27.664Z,100250.00
2018-12-30T05:55:33.329Z,100254.75
2018-12-30T05:58:38.967Z,100258.42
2018-12-30T06:01:44.558Z,100258.34
2018-12-30T06:04:50.193Z,100260.98
2018-12-30T06:07:55.808Z,100265.28
2018-12-30T06:11:01.466Z,100267.37
2018-12-30T06:14:07.089Z,100271.25
2018-12-30T06:17:12.743Z,100273.25
2018-12-30T06:20:18.411Z,100283.16
2018-12-30T06:23:24.257Z,100285.50
2018-12-30T06:26:29.881Z,100291.91
2018-12-30T06:29:35.480Z,100292.52
2018-12-30T06:32:41.102Z,100289.69
2018-12-30T06:35:46.698Z,100291.48
2018-12-30T06:38:52.303Z,100292.34
2018-12-30T06:41:57.945Z,100293.53
2018-12-30T06:45:03.579Z,100292.16
2018-12-30T06:48:09.185Z,100290.66
2018-12-30T06:51:14.808Z,100292.03
2018-12-30T06:54:20.511Z,100292.08
2018-12-30T06:57:26.181Z,100297.08
2018-12-30T07:00:31.800Z,100294.72
2018-12-30T07:03:37.439Z,100299.54
2018-12-30T07:06:43.111Z,100295.20
2018-12-30T07:09:48.731Z,100293.22
2018-12-30T07:12:54.407Z,100291.89
2018-12-30T07:16:00.098Z,100283.64
2018-12-30T07:19:06.676Z,100285.64
2018-12-30T07:22:12.295Z,100286.30
2018-12-30T07:25:17.894Z,100285.55
2018-12-30T07:28:23.484Z,100284.56
2018-12-30T07:31:29.070Z,100282.86
2018-12-30T07:34:34.705Z,100279.44
2018-12-30T07:37:40.319Z,100280.39
2018-12-30T07:40:45.947Z,100281.67
2018-12-30T07:43:51.651Z,100270.72
2018-12-30T07:46:57.411Z,100274.63
2018-12-30T07:50:03.053Z,100275.09
2018-12-30T07:53:13.640Z,100268.19
2018-12-30T07:56:16.068Z,100266.77
2018-12-30T07:59:22.704Z,100271.32
2018-12-30T08:02:28.398Z,100268.06
2018-12-30T08:05:34.036Z,100271.52
2018-12-30T08:08:39.704Z,100277.17
2018-12-30T08:11:45.331Z,100273.44
2018-12-30T08:14:51.131Z,100279.28
2018-12-30T08:17:56.723Z,100281.16
2018-12-30T08:21:02.340Z,100279.84
2018-12-30T08:24:07.970Z,100275.21
2018-12-30T08:27:13.597Z,100278.13
2018-12-30T08:30:19.228Z,100284.08
2018-12-30T08:33:24.876Z,100287.23
2018-12-30T08:36:30.486Z,100281.25
2018-12-30T08:39:36.154Z,100274.05
2018-12-30T08:42:42.118Z,100273.26
2018-12-30T08:45:47.719Z,100278.94
2018-12-30T08:48:53.357Z,100272.98
2018-12-30T08:51:59.007Z,100266.06
2018-12-30T08:55:04.663Z,100263.83
2018-12-30T08:58:10.285Z,100264.25
2018-12-30T09:01:15.884Z,100254.59
2018-12-30T09:04:21.487Z,100257.09
2018-12-30T09:07:27.105Z,100255.02
2018-12-30T09:10:32.790Z,100251.88
2018-12-30T09:13:38.433Z,100246.67
2018-12-30T09:16:44.046Z,100254.63
2018-12-30T09:19:49.721Z,100251.20
2018-12-30T09:22:55.380Z,100250.56
2018-12-30T09:26:01.092Z,100251.30
2018-12-30T09:29:06.768Z,100240.40
2018-12-30T09:32:12.377Z,100237.21
2018-12-30T09:35:18.017Z,100235.12
2018-12-30T09:38:23.596Z,100224.66
2018-12-30T09:41:29.201Z,100220.06
2018-12-30T09:44:34.860Z,100228.14
2018-12-30T09:47:40.442Z,100220.41
2018-12-30T09:50:46.302Z,100221.29
2018-12-30T09:53:52.056Z,100218.27
2018-12-30T09:56:57.742Z,100215.55
2018-12-30T10:00:03.891Z,100218.47
2018-12-30T10:03:09.485Z,100215.05
2018-12-30T10:06:15.081Z,100215.77
2018-12-30T10:09:20.723Z,100211.23
2018-12-30T10:12:26.314Z,100206.49
2018-12-30T10:15:31.956Z,100201.91
2018-12-30T10:18:37.587Z,100200.06
2018-12-30T10:21:43.258Z,100196.84
2018-12-30T10:24:48.921Z,100195.83
2018-12-30T10:27:54.544Z,100192.13
2018-12-30T10:31:00.267Z,100182.49
2018-12-30T10:34:05.913Z,100177.17
2018-12-30T10:37:11.620Z,100172.09
2018-12-30T10:40:17.296Z,100157.61
2018-12-30T10:43:22.943Z,100159.31
2018-12-30T10:46:28.578Z,100154.32
2018-12-30T10:49:34.162Z,100154.78
2018-12-30T10:52:39.787Z,100146.69
2018-12-30T10:55:45.844Z,100144.95
2018-12-30T10:58:51.481Z,100141.27
2018-12-30T11:01:57.068Z,100137.52
2018-12-30T11:05:02.709Z,100141.93
2018-12-30T11:08:09.399Z,100133.39
2018-12-30T11:11:15.119Z,100128.23
2018-12-30T11:14:20.733Z,100123.75
2018-12-30T11:17:26.418Z,100125.17
2018-12-30T11:20:32.039Z,100120.80
2018-12-30T11:23:37.621Z,100109.98
2018-12-30T11:26:43.265Z,100110.00
2018-12-30T11:29:48.850Z,100106.31
2018-12-30T11:32:54.441Z,100108.05
2018-12-30T11:36:00.105Z,100103.80
2018-12-30T11:39:07.549Z,100098.23
2018-12-30T11:42:13.208Z,100104.65
2018-12-30T11:45:18.878Z,100107.20
2018-12-30T11:48:24.625Z,100106.00
2018-12-30T11:51:30.290Z,100104.39
2018-12-30T11:54:35.914Z,100102.69
2018-12-30T11:57:41.547Z,100097.25
2018-12-30T12:00:48.174Z,100100.86
2018-12-30T12:03:53.766Z,100101.19
2018-12-30T12:06:59.424Z,100097.23
2018-12-30T12:10:05.616Z,100104.31
2018-12-30T12:13:11.246Z,100103.70
2018-12-30T12:16:16.887Z,100111.13
2018-12-30T12:19:22.465Z,100103.41
2018-12-30T12:22:28.075Z,100097.42
2018-12-30T12:25:33.734Z,100094.69
2018-12-30T12:28:39.410Z,100096.45
2018-12-30T12:31:45.061Z,100106.33
2018-12-30T12:34:50.680Z,100100.43
2018-12-30T12:37:56.294Z,100110.86
2018-12-30T12:41:01.923Z,100112.14
2018-12-30T12:44:07.591Z,100113.52
2018-12-30T12:47:13.217Z,100114.06
2018-12-30T12:50:18.808Z,100111.45
2018-12-30T12:53:24.402Z,100110.84
2018-12-30T12:56:30.036Z,100109.47
2018-12-30T12:59:35.674Z,100106.62
2018-12-30T13:02:41.277Z,100111.92
2018-12-30T13:05:46.916Z,100112.50
2018-12-30T13:08:52.495Z,100113.39
2018-12-30T13:11:58.099Z,100107.61
2018-12-30T13:15:03.717Z,100109.98
2018-12-30T13:18:09.348Z,100104.29
2018-12-30T13:21:15.172Z,100111.37
2018-12-30T13:24:20.814Z,100110.27
2018-12-30T13:27:26.488Z,100110.12
2018-12-30T13:30:32.445Z,100106.20
2018-12-30T13:33:38.075Z,100107.20
2018-12-30T13:36:43.710Z,100112.30
2018-12-30T13:39:49.299Z,100121.38
2018-12-30T13:42:54.926Z,100116.17
2018-12-30T13:46:00.558Z,100119.08
2018-12-30T13:49:06.155Z,100117.50
2018-12-30T13:52:11.801Z,100113.63
2018-12-30T13:55:17.458Z,100114.66
2018-12-30T13:58:23.075Z,100113.62
2018-12-30T14:01:28.781Z,100117.55
2018-12-30T14:04:34.383Z,100117.35
2018-12-30T14:07:40.009Z,100113.28
2018-12-30T14:10:45.647Z,100113.70
2018-12-30T14:13:51.237Z,100118.19
2018-12-30T14:16:56.866Z,100114.58
2018-12-30T14:20:02.509Z,100118.23
2018-12-30T14:23:08.110Z,100113.45
2018-12-30T14:26:13.754Z,100114.78
2018-12-30T14:29:19.434Z,100110.70
2018-12-30T14:32:25.118Z,100115.41
2018-12-30T14:35:30.740Z,100112.77
2018-12-30T14:38:36.375Z,100112.77
2018-12-30T14:41:42.043Z,100113.19
2018-12-30T14:44:47.720Z,100114.30
2018-12-30T14:47:53.395Z,100120.55
2018-12-30T14:50:59.058Z,100117.83
2018-12-30T14:54:04.715Z,100115.57
2018-12-30T14:57:10.395Z,100112.44
2018-12-30T15:00:16.115Z,100118.47
2018-12-30T15:03:21.727Z,100126.95
2018-12-30T15:06:27.348Z,100124.00
2018-12-30T15:09:35.773Z,100121.27
2018-12-30T15:12:40.287Z,100119.58
2018-12-30T15:15:45.981Z,100125.09
2018-12-30T15:18:51.603Z,100120.68
2018-12-30T15:21:57.243Z,100126.97
2018-12-30T15:25:02.867Z,100133.91
2018-12-30T15:28:08.516Z,100139.13
2018-12-30T15:31:14.122Z,100138.70
2018-12-30T15:34:19.720Z,100144.38
2018-12-30T15:37:25.370Z,100143.69
2018-12-30T15:40:31.035Z,100143.09
2018-12-30T15:43:36.724Z,100141.76
2018-12-30T15:46:42.355Z,100146.03
2018-12-30T15:49:48.043Z,100146.08
2018-12-30T15:52:53.786Z,100152.41
2018-12-30T15:55:59.431Z,100148.83
2018-12-30T15:59:05.079Z,100152.20
2018-12-30T16:02:10.855Z,100151.69
2018-12-30T16:05:16.489Z,100145.31
2018-12-30T16:08:22.107Z,100153.24
2018-12-30T16:11:27.730Z,100163.14
2018-12-30T16:14:33.378Z,100156.52
2018-12-30T16:17:39.014Z,100162.45
2018-12-30T16:20:44.621Z,100157.03
2018-12-30T16:23:50.266Z,100160.39
2018-12-30T16:26:55.862Z,100158.03
2018-12-30T16:30:01.483Z,100158.97
2018-12-30T16:33:07.224Z,100158.83
2018-12-30T16:36:12.815Z,100162.42
2018-12-30T16:39:18.463Z,100171.61
2018-12-30T16:42:24.098Z,100168.03
2018-12-30T16:45:29.743Z,100171.61
2018-12-30T16:48:35.386Z,100170.97
2018-12-30T16:51:40.978Z,100174.55
2018-12-30T16:54:46.578Z,100166.25
2018-12-30T16:57:52.235Z,100176.03
2018-12-30T17:00:57.901Z,100173.97
2018-12-30T17:04:04.090Z,100181.32
2018-12-30T17:07:09.838Z,100182.15
2018-12-30T17:10:15.628Z,100190.00
2018-12-30T17:13:21.295Z,100193.20
2018-12-30T17:16:26.968Z,100191.20
2018-12-30T17:19:32.634Z,100195.69
2018-12-30T17:22:38.223Z,100191.89
2018-12-30T17:25:43.877Z,100195.47
2018-12-30T17:28:49.473Z,100198.16
2018-12-30T17:31:55.098Z,100197.71
2018-12-30T17:35:00.743Z,100205.64
2018-12-30T17:38:06.452Z,100203.75
2018-12-30T17:41:13.047Z,100203.23
2018-12-30T17:44:18.682Z,100203.03
2018-12-30T17:47:24.344Z,100200.18
2018-12-30T17:50:30.033Z,100197.34
2018-12-30T17:53:35.686Z,100200.44
2018-12-30T17:56:41.416Z,100201.14
2018-12-30T17:59:47.081Z,100205.79
2018-12-30T18:02:52.719Z,100208.93
2018-12-30T18:05:58.455Z,100206.00
2018-12-30T18:09:04.792Z,100201.38
2018-12-30T18:12:10.649Z,100202.75
2018-12-30T18:15:16.303Z,100204.47
2018-12-30T18:18:21.905Z,100202.67
2018-12-30T18:21:27.532Z,100203.48
2018-12-30T18:24:33.137Z,100205.06
2018-12-30T18:27:39.848Z,100201.38
2018-12-30T18:30:45.500Z,100202.46
2018-12-30T18:33:51.123Z,100202.98
2018-12-30T18:36:56.952Z,100203.56
2018-12-30T18:40:02.619Z,100201.09
2018-12-30T18:43:08.261Z,100199.09
2018-12-30T18:46:13.930Z,100200.73
2018-12-30T18:49:19.558Z,100199.45
2018-12-30T18:52:25.181Z,100198.14
2018-12-30T18:55:30.872Z,100196.23
2018-12-30T18:58:36.554Z,100206.17
2018-12-30T19:01:42.182Z,100202.17
2018-12-30T19:04:47.787Z,100198.14
2018-12-30T19:07:53.442Z,100197.27
2018-12-30T19:10:59.070Z,100209.24
2018-12-30T19:14:04.691Z,100208.54
2018-12-30T19:17:10.363Z,100209.71
2018-12-30T19:20:16.034Z,100212.91
2018-12-30T19:23:21.794Z,100211.27
2018-12-30T19:26:27.392Z,100206.41
2018-12-30T19:29:33.004Z,100216.94
2018-12-30T19:32:38.742Z,100213.76
2018-12-30T19:35:44.369Z,100214.19
2018-12-30T19:38:50.046Z,100209.92
2018-12-30T19:41:55.669Z,100210.16
2018-12-30T19:45:01.269Z,100202.65
2018-12-30T19:48:06.893Z,100202.42
2018-12-30T19:51:12.525Z,100202.12
2018-12-30T19:54:18.155Z,100193.50
2018-12-30T19:57:23.811Z,100200.66
2018-12-30T20:00:29.468Z,100194.20
2018-12-30T20:03:35.130Z,100190.98
2018-12-30T20:06:40.804Z,100193.25
2018-12-30T20:09:46.435Z,100191.84
2018-12-30T20:12:52.072Z,100189.83
2018-12-30T20:15:57.676Z,100188.54
2018-12-30T20:19:03.286Z,100190.08
2018-12-30T20:22:08.918Z,100189.52
2018-12-30T20:25:14.524Z,100187.18
2018-12-30T20:28:20.157Z,100183.64
2018-12-30T20:31:25.847Z,100193.22
2018-12-30T20:34:31.532Z,100186.37
2018-12-30T20:37:37.153Z,100186.48
2018-12-30T20:40:42.759Z,100183.05
2018-12-30T20:43:48.415Z,100186.14
2018-12-30T20:46:54.016Z,100187.45
2018-12-30T20:49:59.645Z,100182.61
2018-12-30T20:53:05.268Z,100184.31
2018-12-30T20:56:10.945Z,100183.90
2018-12-30T20:59:17.121Z,100179.07
2018-12-30T21:02:22.742Z,100186.11
2018-12-30T21:05:28.397Z,100185.78
2018-12-30T21:08:34.074Z,100187.92
2018-12-30T21:11:39.723Z,100186.03
2018-12-30T21:14:45.355Z,100189.98
2018-12-30T21:17:51.025Z,100181.88
2018-12-30T21:20:56.655Z,100186.21
2018-12-30T21:24:02.369Z,100187.19
2018-12-30T21:27:08.048Z,100188.67
2018-12-30T21:30:13.683Z,100189.14
2018-12-30T21:33:19.359Z,100185.95
2018-12-30T21:36:24.963Z,100188.02
2018-12-30T21:39:30.531Z,100196.34
2018-12-30T21:42:43.508Z,100190.95
2018-12-30T21:45:43.549Z,100200.70
2018-12-30T21:48:49.199Z,100195.73
2018-12-30T21:51:54.914Z,100193.78
2018-12-30T21:55:00.545Z,100197.95
2018-12-30T21:58:06.185Z,100193.78
2018-12-30T22:01:11.785Z,100196.89
2018-12-30T22:04:17.412Z,100195.81
2018-12-30T22:07:23.014Z,100193.64
2018-12-30T22:10:28.592Z,100192.80
2018-12-30T22:13:34.220Z,100194.28
2018-12-30T22:16:39.858Z,100193.81
2018-12-30T22:19:45.559Z,100190.15
2018-12-30T22:22:51.195Z,100200.52
2018-12-30T22:25:56.861Z,100196.31
2018-12-30T22:29:02.541Z,100199.52
2018-12-30T22:32:08.175Z,100198.48
2018-12-30T22:35:13.806Z,100198.92
2018-12-30T22:38:19.453Z,100198.09
2018-12-30T22:41:25.081Z,100194.31
2018-12-30T22:44:30.695Z,100193.81
2018-12-30T22:47:36.292Z,100200.98
2018-12-30T22:50:41.916Z,100206.32
2018-12-30T22:53:47.557Z,100198.52
2018-12-30T22:56:53.211Z,100196.58
2018-12-30T22:59:58.841Z,100200.88
2018-12-30T23:03:04.732Z,100199.20
2018-12-30T23:06:10.334Z,100203.00
2018-12-30T23:09:15.999Z,100200.08
2018-12-30T23:12:21.970Z,100201.10
2018-12-30T23:15:27.588Z,100198.78
2018-12-30T23:18:33.298Z,100202.64
2018-12-30T23:21:38.911Z,100198.06
2018-12-30T23:24:44.554Z,100195.95
2018-12-30T23:27:50.169Z,100199.96
2018-12-30T23:30:55.751Z,100199.48
2018-12-30T23:34:01.376Z,100199.26
2018-12-30T23:37:07.116Z,100200.13
2018-12-30T23:40:12.773Z,100208.68
2018-12-30T23:43:18.411Z,100204.97
2018-12-30T23:46:24.087Z,100206.13
2018-12-30T23:49:29.734Z,100208.80
2018-12-30T23:52:35.367Z,100214.31
2018-12-30T23:55:40.997Z,100209.75
2018-12-30T23:58:46.582Z,100209.02
